sensor_id;sensor_type;location;lat;lon;timestamp;temperature;humidity
610;DHT22;292;48.800;9.216;2024-03-22T00:00:47;14.00;67.70
610;DHT22;292;48.800;9.216;2024-03-22T00:03:13;13.90;67.90
610;DHT22;292;48.800;9.216;2024-03-22T00:05:40;13.80;68.00
610;DHT22;292;48.800;9.216;2024-03-22T00:08:06;13.70;68.20
610;DHT22;292;48.800;9.216;2024-03-22T00:10:34;13.70;68.30
610;DHT22;292;48.800;9.216;2024-03-22T00:13:02;13.60;68.50
610;DHT22;292;48.800;9.216;2024-03-22T00:15:29;13.50;68.70
610;DHT22;292;48.800;9.216;2024-03-22T00:17:55;13.50;68.90
610;DHT22;292;48.800;9.216;2024-03-22T00:20:21;13.40;69.00
610;DHT22;292;48.800;9.216;2024-03-22T00:22:47;13.40;69.30
610;DHT22;292;48.800;9.216;2024-03-22T00:25:14;13.30;69.50
610;DHT22;292;48.800;9.216;2024-03-22T00:27:40;13.30;69.60
610;DHT22;292;48.800;9.216;2024-03-22T00:30:10;13.30;69.60
610;DHT22;292;48.800;9.216;2024-03-22T00:32:36;13.20;70.00
610;DHT22;292;48.800;9.216;2024-03-22T00:35:03;13.20;70.20
610;DHT22;292;48.800;9.216;2024-03-22T00:37:29;13.20;70.30
610;DHT22;292;48.800;9.216;2024-03-22T00:39:56;13.10;70.30
610;DHT22;292;48.800;9.216;2024-03-22T00:42:22;13.10;70.50
610;DHT22;292;48.800;9.216;2024-03-22T00:44:49;13.00;70.80
610;DHT22;292;48.800;9.216;2024-03-22T00:47:16;13.00;70.80
610;DHT22;292;48.800;9.216;2024-03-22T00:49:44;13.00;70.90
610;DHT22;292;48.800;9.216;2024-03-22T00:52:10;13.00;70.90
610;DHT22;292;48.800;9.216;2024-03-22T00:54:37;13.00;70.90
610;DHT22;292;48.800;9.216;2024-03-22T00:57:05;12.90;70.90
610;DHT22;292;48.800;9.216;2024-03-22T00:59:32;12.90;71.20
610;DHT22;292;48.800;9.216;2024-03-22T01:01:58;12.90;71.20
610;DHT22;292;48.800;9.216;2024-03-22T01:04:27;12.80;71.30
610;DHT22;292;48.800;9.216;2024-03-22T01:06:52;12.80;71.80
610;DHT22;292;48.800;9.216;2024-03-22T01:09:19;12.80;71.80
610;DHT22;292;48.800;9.216;2024-03-22T01:11:45;12.70;71.80
610;DHT22;292;48.800;9.216;2024-03-22T01:14:12;12.70;71.90
610;DHT22;292;48.800;9.216;2024-03-22T01:16:38;12.70;71.90
610;DHT22;292;48.800;9.216;2024-03-22T01:19:07;12.70;72.10
610;DHT22;292;48.800;9.216;2024-03-22T01:21:34;12.70;72.20
610;DHT22;292;48.800;9.216;2024-03-22T01:24:01;12.70;72.10
610;DHT22;292;48.800;9.216;2024-03-22T01:26:27;12.60;72.10
610;DHT22;292;48.800;9.216;2024-03-22T01:28:54;12.60;72.10
610;DHT22;292;48.800;9.216;2024-03-22T01:31:20;12.50;72.20
610;DHT22;292;48.800;9.216;2024-03-22T01:33:47;12.50;72.40
610;DHT22;292;48.800;9.216;2024-03-22T01:36:13;12.40;72.40
610;DHT22;292;48.800;9.216;2024-03-22T01:38:42;12.40;72.50
610;DHT22;292;48.800;9.216;2024-03-22T01:41:08;12.30;72.80
610;DHT22;292;48.800;9.216;2024-03-22T01:43:35;12.20;72.80
610;DHT22;292;48.800;9.216;2024-03-22T01:46:00;12.20;72.90
610;DHT22;292;48.800;9.216;2024-03-22T01:48:28;12.20;73.10
610;DHT22;292;48.800;9.216;2024-03-22T01:50:54;12.20;73.10
610;DHT22;292;48.800;9.216;2024-03-22T01:53:21;12.20;73.20
610;DHT22;292;48.800;9.216;2024-03-22T01:55:49;12.20;73.20
610;DHT22;292;48.800;9.216;2024-03-22T01:58:16;12.20;73.40
610;DHT22;292;48.800;9.216;2024-03-22T02:00:43;12.10;73.40
610;DHT22;292;48.800;9.216;2024-03-22T02:03:11;12.10;73.50
610;DHT22;292;48.800;9.216;2024-03-22T02:05:37;12.00;73.50
610;DHT22;292;48.800;9.216;2024-03-22T02:08:05;12.00;73.70
610;DHT22;292;48.800;9.216;2024-03-22T02:10:31;12.00;73.70
610;DHT22;292;48.800;9.216;2024-03-22T02:13:00;12.00;73.70
610;DHT22;292;48.800;9.216;2024-03-22T02:15:26;12.00;73.70
610;DHT22;292;48.800;9.216;2024-03-22T02:17:53;11.90;73.80
610;DHT22;292;48.800;9.216;2024-03-22T02:20:19;11.90;73.80
610;DHT22;292;48.800;9.216;2024-03-22T02:22:46;11.90;73.80
610;DHT22;292;48.800;9.216;2024-03-22T02:25:13;11.90;73.80
610;DHT22;292;48.800;9.216;2024-03-22T02:27:40;11.90;73.80
610;DHT22;292;48.800;9.216;2024-03-22T02:30:08;11.90;73.90
610;DHT22;292;48.800;9.216;2024-03-22T02:32:34;11.90;73.90
610;DHT22;292;48.800;9.216;2024-03-22T02:35:03;11.90;73.80
610;DHT22;292;48.800;9.216;2024-03-22T02:37:28;11.90;73.90
610;DHT22;292;48.800;9.216;2024-03-22T02:39:57;11.90;73.90
610;DHT22;292;48.800;9.216;2024-03-22T02:42:25;11.90;73.90
610;DHT22;292;48.800;9.216;2024-03-22T02:44:52;11.90;73.70
610;DHT22;292;48.800;9.216;2024-03-22T02:47:18;11.90;73.80
610;DHT22;292;48.800;9.216;2024-03-22T02:49:45;11.80;73.80
610;DHT22;292;48.800;9.216;2024-03-22T02:52:11;11.80;73.80
610;DHT22;292;48.800;9.216;2024-03-22T02:54:38;11.80;73.80
610;DHT22;292;48.800;9.216;2024-03-22T02:57:04;11.80;73.80
610;DHT22;292;48.800;9.216;2024-03-22T02:59:32;11.70;73.80
610;DHT22;292;48.800;9.216;2024-03-22T03:01:58;11.70;73.80
610;DHT22;292;48.800;9.216;2024-03-22T03:04:25;11.70;73.80
610;DHT22;292;48.800;9.216;2024-03-22T03:06:51;11.60;73.80
610;DHT22;292;48.800;9.216;2024-03-22T03:09:18;11.60;73.80
610;DHT22;292;48.800;9.216;2024-03-22T03:11:44;11.60;73.80
610;DHT22;292;48.800;9.216;2024-03-22T03:14:11;11.50;73.80
610;DHT22;292;48.800;9.216;2024-03-22T03:16:38;11.50;73.90
610;DHT22;292;48.800;9.216;2024-03-22T03:19:05;11.50;73.90
610;DHT22;292;48.800;9.216;2024-03-22T03:21:31;11.40;74.10
610;DHT22;292;48.800;9.216;2024-03-22T03:23:59;11.40;74.40
610;DHT22;292;48.800;9.216;2024-03-22T03:26:25;11.40;74.40
610;DHT22;292;48.800;9.216;2024-03-22T03:28:52;11.30;74.50
610;DHT22;292;48.800;9.216;2024-03-22T03:31:18;11.30;74.80
610;DHT22;292;48.800;9.216;2024-03-22T03:33:46;11.30;75.00
610;DHT22;292;48.800;9.216;2024-03-22T03:36:12;11.30;75.10
610;DHT22;292;48.800;9.216;2024-03-22T03:38:39;11.30;75.20
610;DHT22;292;48.800;9.216;2024-03-22T03:41:05;11.40;75.20
610;DHT22;292;48.800;9.216;2024-03-22T03:43:32;11.40;75.10
610;DHT22;292;48.800;9.216;2024-03-22T03:45:58;11.30;75.10
610;DHT22;292;48.800;9.216;2024-03-22T03:48:25;11.30;75.20
610;DHT22;292;48.800;9.216;2024-03-22T03:50:54;11.30;75.20
610;DHT22;292;48.800;9.216;2024-03-22T03:53:24;11.30;75.40
610;DHT22;292;48.800;9.216;2024-03-22T03:55:50;11.30;75.20
610;DHT22;292;48.800;9.216;2024-03-22T03:58:17;11.20;75.40
610;DHT22;292;48.800;9.216;2024-03-22T04:00:43;11.20;75.50
610;DHT22;292;48.800;9.216;2024-03-22T04:03:10;11.20;75.50
610;DHT22;292;48.800;9.216;2024-03-22T04:05:36;11.20;75.50
610;DHT22;292;48.800;9.216;2024-03-22T04:08:05;11.20;75.50
610;DHT22;292;48.800;9.216;2024-03-22T04:10:31;11.20;75.70
610;DHT22;292;48.800;9.216;2024-03-22T04:12:58;11.20;75.40
610;DHT22;292;48.800;9.216;2024-03-22T04:15:24;11.20;75.40
610;DHT22;292;48.800;9.216;2024-03-22T04:17:51;11.20;75.20
610;DHT22;292;48.800;9.216;2024-03-22T04:20:17;11.20;75.20
610;DHT22;292;48.800;9.216;2024-03-22T04:22:44;11.10;75.20
610;DHT22;292;48.800;9.216;2024-03-22T04:25:12;11.10;75.40
610;DHT22;292;48.800;9.216;2024-03-22T04:27:38;11.10;75.40
610;DHT22;292;48.800;9.216;2024-03-22T04:30:06;11.10;75.20
610;DHT22;292;48.800;9.216;2024-03-22T04:32:33;11.10;75.20
610;DHT22;292;48.800;9.216;2024-03-22T04:34:59;11.10;75.40
610;DHT22;292;48.800;9.216;2024-03-22T04:37:26;11.00;75.40
610;DHT22;292;48.800;9.216;2024-03-22T04:39:53;11.00;75.40
610;DHT22;292;48.800;9.216;2024-03-22T04:42:21;11.00;75.40
610;DHT22;292;48.800;9.216;2024-03-22T04:44:48;11.00;75.50
610;DHT22;292;48.800;9.216;2024-03-22T04:47:14;10.90;75.40
610;DHT22;292;48.800;9.216;2024-03-22T04:49:41;10.90;75.80
610;DHT22;292;48.800;9.216;2024-03-22T04:52:07;10.90;75.80
610;DHT22;292;48.800;9.216;2024-03-22T04:54:34;11.00;75.70
610;DHT22;292;48.800;9.216;2024-03-22T04:57:00;11.00;75.80
610;DHT22;292;48.800;9.216;2024-03-22T04:59:28;11.00;75.80
610;DHT22;292;48.800;9.216;2024-03-22T05:01:54;11.00;76.00
610;DHT22;292;48.800;9.216;2024-03-22T05:04:22;11.00;75.80
610;DHT22;292;48.800;9.216;2024-03-22T05:06:48;11.00;75.80
610;DHT22;292;48.800;9.216;2024-03-22T05:09:15;11.00;75.80
610;DHT22;292;48.800;9.216;2024-03-22T05:11:41;11.00;75.80
610;DHT22;292;48.800;9.216;2024-03-22T05:14:08;11.00;75.70
610;DHT22;292;48.800;9.216;2024-03-22T05:16:35;11.00;75.80
610;DHT22;292;48.800;9.216;2024-03-22T05:19:02;11.00;75.80
610;DHT22;292;48.800;9.216;2024-03-22T05:21:28;11.00;76.00
610;DHT22;292;48.800;9.216;2024-03-22T05:23:55;11.00;76.00
610;DHT22;292;48.800;9.216;2024-03-22T05:26:21;11.00;75.80
610;DHT22;292;48.800;9.216;2024-03-22T05:28:48;11.00;75.80
610;DHT22;292;48.800;9.216;2024-03-22T05:31:14;11.00;75.80
610;DHT22;292;48.800;9.216;2024-03-22T05:33:42;11.00;76.00
610;DHT22;292;48.800;9.216;2024-03-22T05:36:08;11.00;76.00
610;DHT22;292;48.800;9.216;2024-03-22T05:38:35;11.00;76.10
610;DHT22;292;48.800;9.216;2024-03-22T05:41:04;11.00;76.10
610;DHT22;292;48.800;9.216;2024-03-22T05:43:31;10.90;76.10
610;DHT22;292;48.800;9.216;2024-03-22T05:45:56;11.00;76.10
610;DHT22;292;48.800;9.216;2024-03-22T05:48:23;11.00;76.10
610;DHT22;292;48.800;9.216;2024-03-22T05:50:51;11.00;76.10
610;DHT22;292;48.800;9.216;2024-03-22T05:53:18;11.10;76.00
610;DHT22;292;48.800;9.216;2024-03-22T05:55:44;11.10;76.00
610;DHT22;292;48.800;9.216;2024-03-22T05:58:11;11.10;75.80
610;DHT22;292;48.800;9.216;2024-03-22T06:00:37;11.10;75.80
610;DHT22;292;48.800;9.216;2024-03-22T06:03:04;11.10;76.00
610;DHT22;292;48.800;9.216;2024-03-22T06:05:30;11.10;76.00
610;DHT22;292;48.800;9.216;2024-03-22T06:07:59;11.10;76.00
610;DHT22;292;48.800;9.216;2024-03-22T06:10:25;11.20;76.00
610;DHT22;292;48.800;9.216;2024-03-22T06:12:52;11.20;76.00
610;DHT22;292;48.800;9.216;2024-03-22T06:15:18;11.20;76.00
610;DHT22;292;48.800;9.216;2024-03-22T06:17:47;11.20;76.00
610;DHT22;292;48.800;9.216;2024-03-22T06:20:13;11.20;75.80
610;DHT22;292;48.800;9.216;2024-03-22T06:22:40;11.20;75.80
610;DHT22;292;48.800;9.216;2024-03-22T06:25:08;11.20;75.70
610;DHT22;292;48.800;9.216;2024-03-22T06:27:34;11.20;75.80
610;DHT22;292;48.800;9.216;2024-03-22T06:30:01;11.20;75.70
610;DHT22;292;48.800;9.216;2024-03-22T06:32:27;11.20;75.80
610;DHT22;292;48.800;9.216;2024-03-22T06:34:54;11.20;75.80
610;DHT22;292;48.800;9.216;2024-03-22T06:37:20;11.20;75.80
610;DHT22;292;48.800;9.216;2024-03-22T06:39:47;11.20;75.70
610;DHT22;292;48.800;9.216;2024-03-22T06:42:14;11.20;75.80
610;DHT22;292;48.800;9.216;2024-03-22T06:44:41;11.20;75.70
610;DHT22;292;48.800;9.216;2024-03-22T06:47:07;11.20;75.70
610;DHT22;292;48.800;9.216;2024-03-22T06:49:34;11.20;75.70
610;DHT22;292;48.800;9.216;2024-03-22T06:52:00;11.20;75.80
610;DHT22;292;48.800;9.216;2024-03-22T06:54:27;11.30;75.70
610;DHT22;292;48.800;9.216;2024-03-22T06:56:53;11.30;75.50
610;DHT22;292;48.800;9.216;2024-03-22T06:59:22;11.40;75.50
610;DHT22;292;48.800;9.216;2024-03-22T07:01:48;11.40;75.40
610;DHT22;292;48.800;9.216;2024-03-22T07:04:15;11.40;75.40
610;DHT22;292;48.800;9.216;2024-03-22T07:06:41;11.50;75.20
610;DHT22;292;48.800;9.216;2024-03-22T07:09:08;11.50;75.10
610;DHT22;292;48.800;9.216;2024-03-22T07:11:34;11.50;75.10
610;DHT22;292;48.800;9.216;2024-03-22T07:14:01;11.60;75.00
610;DHT22;292;48.800;9.216;2024-03-22T07:16:29;11.70;74.80
610;DHT22;292;48.800;9.216;2024-03-22T07:18:56;11.70;74.70
610;DHT22;292;48.800;9.216;2024-03-22T07:21:22;11.80;74.50
610;DHT22;292;48.800;9.216;2024-03-22T07:23:49;11.80;74.10
610;DHT22;292;48.800;9.216;2024-03-22T07:26:15;11.90;73.90
610;DHT22;292;48.800;9.216;2024-03-22T07:28:42;11.90;73.70
610;DHT22;292;48.800;9.216;2024-03-22T07:31:08;11.90;73.70
610;DHT22;292;48.800;9.216;2024-03-22T07:33:36;11.90;73.50
610;DHT22;292;48.800;9.216;2024-03-22T07:36:05;12.00;73.40
610;DHT22;292;48.800;9.216;2024-03-22T07:38:32;12.00;73.40
610;DHT22;292;48.800;9.216;2024-03-22T07:40:58;12.00;73.40
610;DHT22;292;48.800;9.216;2024-03-22T07:43:25;12.10;73.40
610;DHT22;292;48.800;9.216;2024-03-22T07:45:51;12.20;73.20
610;DHT22;292;48.800;9.216;2024-03-22T07:48:18;12.20;73.10
610;DHT22;292;48.800;9.216;2024-03-22T07:50:45;12.30;73.10
610;DHT22;292;48.800;9.216;2024-03-22T07:53:12;12.30;72.90
610;DHT22;292;48.800;9.216;2024-03-22T07:55:39;12.40;72.80
610;DHT22;292;48.800;9.216;2024-03-22T07:58:06;12.50;72.60
610;DHT22;292;48.800;9.216;2024-03-22T08:00:32;12.60;72.50
610;DHT22;292;48.800;9.216;2024-03-22T08:02:59;12.70;72.40
610;DHT22;292;48.800;9.216;2024-03-22T08:05:25;12.70;72.20
610;DHT22;292;48.800;9.216;2024-03-22T08:07:53;12.90;71.90
610;DHT22;292;48.800;9.216;2024-03-22T08:10:19;12.90;71.50
610;DHT22;292;48.800;9.216;2024-03-22T08:12:46;13.00;71.50
610;DHT22;292;48.800;9.216;2024-03-22T08:15:12;13.10;71.30
610;DHT22;292;48.800;9.216;2024-03-22T08:17:39;13.20;71.30
610;DHT22;292;48.800;9.216;2024-03-22T08:20:06;13.30;71.10
610;DHT22;292;48.800;9.216;2024-03-22T08:22:34;13.40;70.90
610;DHT22;292;48.800;9.216;2024-03-22T08:25:01;13.50;70.80
610;DHT22;292;48.800;9.216;2024-03-22T08:27:29;13.50;70.30
610;DHT22;292;48.800;9.216;2024-03-22T08:29:55;13.60;70.20
610;DHT22;292;48.800;9.216;2024-03-22T08:32:22;13.70;70.20
610;DHT22;292;48.800;9.216;2024-03-22T08:34:48;13.80;69.90
610;DHT22;292;48.800;9.216;2024-03-22T08:37:15;13.90;69.80
610;DHT22;292;48.800;9.216;2024-03-22T08:39:41;14.00;69.30
610;DHT22;292;48.800;9.216;2024-03-22T08:42:10;14.10;69.20
610;DHT22;292;48.800;9.216;2024-03-22T08:44:36;14.20;69.00
610;DHT22;292;48.800;9.216;2024-03-22T08:47:03;14.30;68.90
610;DHT22;292;48.800;9.216;2024-03-22T08:49:29;14.50;68.60
610;DHT22;292;48.800;9.216;2024-03-22T08:51:56;14.60;68.50
610;DHT22;292;48.800;9.216;2024-03-22T08:54:22;14.70;68.00
610;DHT22;292;48.800;9.216;2024-03-22T08:56:49;14.80;67.90
610;DHT22;292;48.800;9.216;2024-03-22T08:59:17;15.00;67.70
610;DHT22;292;48.800;9.216;2024-03-22T09:01:44;15.10;67.60
610;DHT22;292;48.800;9.216;2024-03-22T09:04:10;15.20;67.30
610;DHT22;292;48.800;9.216;2024-03-22T09:06:37;15.30;66.90
610;DHT22;292;48.800;9.216;2024-03-22T09:09:05;15.40;66.70
610;DHT22;292;48.800;9.216;2024-03-22T09:11:33;15.50;66.40
610;DHT22;292;48.800;9.216;2024-03-22T09:13:59;15.60;66.20
610;DHT22;292;48.800;9.216;2024-03-22T09:16:28;15.80;66.00
610;DHT22;292;48.800;9.216;2024-03-22T09:19:10;15.80;65.70
610;DHT22;292;48.800;9.216;2024-03-22T09:21:38;15.90;65.40
610;DHT22;292;48.800;9.216;2024-03-22T09:24:07;16.00;65.30
610;DHT22;292;48.800;9.216;2024-03-22T09:26:35;16.10;65.00
610;DHT22;292;48.800;9.216;2024-03-22T09:29:02;16.20;64.60
610;DHT22;292;48.800;9.216;2024-03-22T09:31:31;16.30;64.30
610;DHT22;292;48.800;9.216;2024-03-22T09:34:01;16.40;64.10
610;DHT22;292;48.800;9.216;2024-03-22T09:36:34;16.50;63.70
610;DHT22;292;48.800;9.216;2024-03-22T09:39:01;16.60;63.40
610;DHT22;292;48.800;9.216;2024-03-22T09:41:27;16.80;63.10
610;DHT22;292;48.800;9.216;2024-03-22T09:43:57;16.90;62.70
610;DHT22;292;48.800;9.216;2024-03-22T09:46:24;17.00;62.50
610;DHT22;292;48.800;9.216;2024-03-22T09:48:55;17.20;61.80
610;DHT22;292;48.800;9.216;2024-03-22T09:51:24;17.30;60.80
610;DHT22;292;48.800;9.216;2024-03-22T09:53:52;17.40;60.10
610;DHT22;292;48.800;9.216;2024-03-22T09:56:21;17.50;59.60
610;DHT22;292;48.800;9.216;2024-03-22T09:58:48;17.70;58.60
610;DHT22;292;48.800;9.216;2024-03-22T10:01:15;17.80;58.00
610;DHT22;292;48.800;9.216;2024-03-22T10:03:43;17.90;57.00
610;DHT22;292;48.800;9.216;2024-03-22T10:06:11;17.90;56.50
610;DHT22;292;48.800;9.216;2024-03-22T10:08:38;18.00;56.40
610;DHT22;292;48.800;9.216;2024-03-22T10:11:04;18.10;56.00
610;DHT22;292;48.800;9.216;2024-03-22T10:13:31;18.20;55.00
610;DHT22;292;48.800;9.216;2024-03-22T10:15:57;18.30;54.00
610;DHT22;292;48.800;9.216;2024-03-22T10:18:27;18.50;53.00
610;DHT22;292;48.800;9.216;2024-03-22T10:21:00;18.60;52.20
610;DHT22;292;48.800;9.216;2024-03-22T10:23:29;18.70;51.80
610;DHT22;292;48.800;9.216;2024-03-22T10:25:56;18.80;51.20
610;DHT22;292;48.800;9.216;2024-03-22T10:28:24;18.80;50.10
610;DHT22;292;48.800;9.216;2024-03-22T10:30:54;18.90;49.40
610;DHT22;292;48.800;9.216;2024-03-22T10:33:21;18.90;49.00
610;DHT22;292;48.800;9.216;2024-03-22T10:35:51;19.00;48.90
610;DHT22;292;48.800;9.216;2024-03-22T10:38:19;19.00;48.40
610;DHT22;292;48.800;9.216;2024-03-22T10:40:48;19.10;48.00
610;DHT22;292;48.800;9.216;2024-03-22T10:43:15;19.10;47.40
610;DHT22;292;48.800;9.216;2024-03-22T10:45:42;19.20;47.30
610;DHT22;292;48.800;9.216;2024-03-22T10:48:13;19.20;47.20
610;DHT22;292;48.800;9.216;2024-03-22T10:50:43;19.30;47.00
610;DHT22;292;48.800;9.216;2024-03-22T10:53:12;19.40;46.90
610;DHT22;292;48.800;9.216;2024-03-22T10:55:43;19.40;46.50
610;DHT22;292;48.800;9.216;2024-03-22T10:58:16;19.50;46.60
610;DHT22;292;48.800;9.216;2024-03-22T11:00:44;19.50;46.50
610;DHT22;292;48.800;9.216;2024-03-22T11:03:10;19.60;46.50
610;DHT22;292;48.800;9.216;2024-03-22T11:05:45;19.60;46.20
610;DHT22;292;48.800;9.216;2024-03-22T11:08:11;19.70;46.10
610;DHT22;292;48.800;9.216;2024-03-22T11:10:39;19.80;46.00
610;DHT22;292;48.800;9.216;2024-03-22T11:13:09;19.80;45.70
610;DHT22;292;48.800;9.216;2024-03-22T11:15:37;19.90;45.60
610;DHT22;292;48.800;9.216;2024-03-22T11:18:03;20.00;45.70
610;DHT22;292;48.800;9.216;2024-03-22T11:20:31;20.00;45.60
610;DHT22;292;48.800;9.216;2024-03-22T11:22:57;20.10;45.20
610;DHT22;292;48.800;9.216;2024-03-22T11:25:26;20.10;44.90
610;DHT22;292;48.800;9.216;2024-03-22T11:27:54;20.10;45.00
610;DHT22;292;48.800;9.216;2024-03-22T11:30:27;20.10;45.20
610;DHT22;292;48.800;9.216;2024-03-22T11:32:55;20.10;45.20
610;DHT22;292;48.800;9.216;2024-03-22T11:35:23;20.10;45.20
610;DHT22;292;48.800;9.216;2024-03-22T11:37:50;20.10;45.00
610;DHT22;292;48.800;9.216;2024-03-22T11:40:17;20.10;45.00
610;DHT22;292;48.800;9.216;2024-03-22T11:42:46;20.20;45.20
610;DHT22;292;48.800;9.216;2024-03-22T11:45:15;20.30;45.20
610;DHT22;292;48.800;9.216;2024-03-22T11:47:42;20.30;45.00
610;DHT22;292;48.800;9.216;2024-03-22T11:50:12;20.30;44.90
610;DHT22;292;48.800;9.216;2024-03-22T11:52:40;20.40;44.60
610;DHT22;292;48.800;9.216;2024-03-22T11:55:07;20.50;44.60
610;DHT22;292;48.800;9.216;2024-03-22T11:57:33;20.60;44.60
610;DHT22;292;48.800;9.216;2024-03-22T12:00:02;20.60;44.40
610;DHT22;292;48.800;9.216;2024-03-22T12:02:31;20.70;44.20
610;DHT22;292;48.800;9.216;2024-03-22T12:05:00;20.80;43.80
610;DHT22;292;48.800;9.216;2024-03-22T12:07:28;20.80;43.60
610;DHT22;292;48.800;9.216;2024-03-22T12:09:56;20.90;43.40
610;DHT22;292;48.800;9.216;2024-03-22T12:12:22;21.00;43.30
610;DHT22;292;48.800;9.216;2024-03-22T12:14:49;21.00;43.20
610;DHT22;292;48.800;9.216;2024-03-22T12:17:16;21.10;42.90
610;DHT22;292;48.800;9.216;2024-03-22T12:19:44;21.10;42.50
610;DHT22;292;48.800;9.216;2024-03-22T12:22:10;21.20;42.40
610;DHT22;292;48.800;9.216;2024-03-22T12:24:39;21.20;41.80
610;DHT22;292;48.800;9.216;2024-03-22T12:27:05;21.20;41.60
610;DHT22;292;48.800;9.216;2024-03-22T12:29:32;21.30;41.60
610;DHT22;292;48.800;9.216;2024-03-22T12:31:58;21.30;41.40
610;DHT22;292;48.800;9.216;2024-03-22T12:34:27;21.30;41.40
610;DHT22;292;48.800;9.216;2024-03-22T12:36:53;21.30;41.30
610;DHT22;292;48.800;9.216;2024-03-22T12:39:20;21.40;41.30
610;DHT22;292;48.800;9.216;2024-03-22T12:41:47;21.40;41.20
610;DHT22;292;48.800;9.216;2024-03-22T12:44:14;21.40;41.00
610;DHT22;292;48.800;9.216;2024-03-22T12:46:40;21.30;40.90
610;DHT22;292;48.800;9.216;2024-03-22T12:49:09;21.30;40.80
610;DHT22;292;48.800;9.216;2024-03-22T12:51:35;21.30;40.90
610;DHT22;292;48.800;9.216;2024-03-22T12:54:02;21.30;41.00
610;DHT22;292;48.800;9.216;2024-03-22T12:56:28;21.30;41.00
610;DHT22;292;48.800;9.216;2024-03-22T12:58:57;21.40;41.20
610;DHT22;292;48.800;9.216;2024-03-22T13:01:23;21.40;41.20
610;DHT22;292;48.800;9.216;2024-03-22T13:03:50;21.40;41.00
610;DHT22;292;48.800;9.216;2024-03-22T13:06:16;21.40;41.00
610;DHT22;292;48.800;9.216;2024-03-22T13:08:43;21.40;41.00
610;DHT22;292;48.800;9.216;2024-03-22T13:11:09;21.40;40.80
610;DHT22;292;48.800;9.216;2024-03-22T13:13:38;21.50;40.60
610;DHT22;292;48.800;9.216;2024-03-22T13:16:08;21.50;40.10
610;DHT22;292;48.800;9.216;2024-03-22T13:18:37;21.50;40.00
610;DHT22;292;48.800;9.216;2024-03-22T13:21:03;21.50;39.80
610;DHT22;292;48.800;9.216;2024-03-22T13:23:30;21.60;39.70
610;DHT22;292;48.800;9.216;2024-03-22T13:25:56;21.60;39.60
610;DHT22;292;48.800;9.216;2024-03-22T13:28:24;21.60;39.40
610;DHT22;292;48.800;9.216;2024-03-22T13:30:59;21.70;39.40
610;DHT22;292;48.800;9.216;2024-03-22T13:33:28;21.70;39.00
610;DHT22;292;48.800;9.216;2024-03-22T13:35:54;21.80;38.90
610;DHT22;292;48.800;9.216;2024-03-22T13:38:22;21.70;39.20
610;DHT22;292;48.800;9.216;2024-03-22T13:40:55;21.70;39.20
610;DHT22;292;48.800;9.216;2024-03-22T13:43:22;21.60;39.30
610;DHT22;292;48.800;9.216;2024-03-22T13:45:51;21.60;39.60
610;DHT22;292;48.800;9.216;2024-03-22T13:48:21;21.60;39.60
610;DHT22;292;48.800;9.216;2024-03-22T13:50:51;21.50;39.70
610;DHT22;292;48.800;9.216;2024-03-22T13:53:18;21.50;39.70
610;DHT22;292;48.800;9.216;2024-03-22T13:55:44;21.50;39.70
610;DHT22;292;48.800;9.216;2024-03-22T13:58:11;21.50;39.70
610;DHT22;292;48.800;9.216;2024-03-22T14:00:38;21.60;39.70
610;DHT22;292;48.800;9.216;2024-03-22T14:03:05;21.50;39.70
610;DHT22;292;48.800;9.216;2024-03-22T14:05:31;21.50;39.80
610;DHT22;292;48.800;9.216;2024-03-22T14:08:00;21.50;40.00
610;DHT22;292;48.800;9.216;2024-03-22T14:10:26;21.50;40.10
610;DHT22;292;48.800;9.216;2024-03-22T14:12:55;21.50;40.40
610;DHT22;292;48.800;9.216;2024-03-22T14:15:21;21.50;40.50
610;DHT22;292;48.800;9.216;2024-03-22T14:17:50;21.50;40.60
610;DHT22;292;48.800;9.216;2024-03-22T14:20:16;21.50;40.50
610;DHT22;292;48.800;9.216;2024-03-22T14:22:44;21.40;40.50
610;DHT22;292;48.800;9.216;2024-03-22T14:25:12;21.40;40.60
610;DHT22;292;48.800;9.216;2024-03-22T14:27:39;21.40;40.80
610;DHT22;292;48.800;9.216;2024-03-22T14:30:10;21.30;40.80
610;DHT22;292;48.800;9.216;2024-03-22T14:32:39;21.20;40.90
610;DHT22;292;48.800;9.216;2024-03-22T14:35:05;21.20;40.90
610;DHT22;292;48.800;9.216;2024-03-22T14:37:32;21.10;40.90
610;DHT22;292;48.800;9.216;2024-03-22T14:39:59;21.00;40.80
610;DHT22;292;48.800;9.216;2024-03-22T14:42:27;20.90;40.20
610;DHT22;292;48.800;9.216;2024-03-22T14:44:53;20.80;39.70
610;DHT22;292;48.800;9.216;2024-03-22T14:47:23;20.70;39.00
610;DHT22;292;48.800;9.216;2024-03-22T14:49:49;20.70;38.60
610;DHT22;292;48.800;9.216;2024-03-22T14:52:17;20.60;38.50
610;DHT22;292;48.800;9.216;2024-03-22T14:54:43;20.60;38.40
610;DHT22;292;48.800;9.216;2024-03-22T14:57:10;20.50;38.20
610;DHT22;292;48.800;9.216;2024-03-22T14:59:37;20.50;38.20
610;DHT22;292;48.800;9.216;2024-03-22T15:02:05;20.40;38.10
610;DHT22;292;48.800;9.216;2024-03-22T15:04:31;20.40;38.00
610;DHT22;292;48.800;9.216;2024-03-22T15:06:58;20.40;37.80
610;DHT22;292;48.800;9.216;2024-03-22T15:09:25;20.30;37.70
610;DHT22;292;48.800;9.216;2024-03-22T15:11:52;20.30;37.60
610;DHT22;292;48.800;9.216;2024-03-22T15:14:21;20.30;37.60
610;DHT22;292;48.800;9.216;2024-03-22T15:16:50;20.30;37.30
610;DHT22;292;48.800;9.216;2024-03-22T15:19:16;20.20;37.20
610;DHT22;292;48.800;9.216;2024-03-22T15:21:43;20.20;37.20
610;DHT22;292;48.800;9.216;2024-03-22T15:24:09;20.20;37.20
610;DHT22;292;48.800;9.216;2024-03-22T15:26:36;20.20;37.20
610;DHT22;292;48.800;9.216;2024-03-22T15:29:01;20.20;37.30
610;DHT22;292;48.800;9.216;2024-03-22T15:31:30;20.20;37.30
610;DHT22;292;48.800;9.216;2024-03-22T15:33:58;20.20;37.30
610;DHT22;292;48.800;9.216;2024-03-22T15:36:25;20.10;37.30
610;DHT22;292;48.800;9.216;2024-03-22T15:38:52;20.10;37.30
610;DHT22;292;48.800;9.216;2024-03-22T15:41:19;20.10;37.40
610;DHT22;292;48.800;9.216;2024-03-22T15:43:45;20.10;37.60
610;DHT22;292;48.800;9.216;2024-03-22T15:46:12;20.10;38.00
610;DHT22;292;48.800;9.216;2024-03-22T15:48:38;20.00;38.20
610;DHT22;292;48.800;9.216;2024-03-22T15:51:06;20.00;38.40
610;DHT22;292;48.800;9.216;2024-03-22T15:53:32;20.00;38.60
610;DHT22;292;48.800;9.216;2024-03-22T15:55:59;20.00;38.90
610;DHT22;292;48.800;9.216;2024-03-22T15:58:25;20.00;39.00
610;DHT22;292;48.800;9.216;2024-03-22T16:00:52;19.90;39.30
610;DHT22;292;48.800;9.216;2024-03-22T16:03:18;19.90;39.40
610;DHT22;292;48.800;9.216;2024-03-22T16:05:49;19.90;39.70
610;DHT22;292;48.800;9.216;2024-03-22T16:08:17;19.90;39.70
610;DHT22;292;48.800;9.216;2024-03-22T16:10:44;19.90;39.70
610;DHT22;292;48.800;9.216;2024-03-22T16:13:10;19.90;40.00
610;DHT22;292;48.800;9.216;2024-03-22T16:15:37;19.90;40.00
610;DHT22;292;48.800;9.216;2024-03-22T16:18:04;19.90;40.10
610;DHT22;292;48.800;9.216;2024-03-22T16:20:31;19.90;40.20
610;DHT22;292;48.800;9.216;2024-03-22T16:22:57;19.90;40.20
610;DHT22;292;48.800;9.216;2024-03-22T16:25:25;19.90;40.40
610;DHT22;292;48.800;9.216;2024-03-22T16:27:51;19.90;40.50
610;DHT22;292;48.800;9.216;2024-03-22T16:30:18;19.80;40.50
610;DHT22;292;48.800;9.216;2024-03-22T16:32:44;19.80;40.60